Time;durP1;ratioP1;P1;durP2;ratioP2;P2;SDS_P1;SDS_P2;PMS_P1;PMS_P2;Temp;Humidity;BMP_temperature;BMP_pressure;BME280_temperature;BME280_humidity;BME280_pressure;Samples;Min_cycle;Max_cycle;Signal;HPM_P1;HPM_P2
2023/03/06 00:00:47;;;;;;;4.67;2.90;;;;;;;;;;5098171;28;20477;-72
2023/03/06 00:03:17;;;;;;;4.93;3.30;;;;;;;;;;5097433;28;20455;-72
2023/03/06 00:05:47;;;;;;;6.07;4.17;;;;;;;;;;5095068;28;20732;-72
2023/03/06 00:08:15;;;;;;;5.60;3.53;;;;;;;;;;5099712;28;20489;-72
2023/03/06 00:10:45;;;;;;;10.27;4.97;;;;;;;;;;5101640;28;20479;-72
2023/03/06 00:13:14;;;;;;;6.90;4.10;;;;;;;;;;5099990;28;20487;-72
2023/03/06 00:15:42;;;;;;;5.87;3.60;;;;;;;;;;5101445;28;20860;-72
2023/03/06 00:18:10;;;;;;;8.83;4.60;;;;;;;;;;5099194;28;20681;-72
2023/03/06 00:20:40;;;;;;;8.80;5.00;;;;;;;;;;5099297;28;20447;-71
2023/03/06 00:23:08;;;;;;;8.73;4.37;;;;;;;;;;5098755;28;20435;-72
2023/03/06 00:25:37;;;;;;;7.40;4.40;;;;;;;;;;5100870;28;20737;-72
2023/03/06 00:28:05;;;;;;;8.40;4.43;;;;;;;;;;5100317;28;20466;-72
2023/03/06 00:30:33;;;;;;;7.00;4.33;;;;;;;;;;5099300;28;20525;-72
2023/03/06 00:33:00;;;;;;;7.67;4.27;;;;;;;;;;5096373;28;20466;-72
2023/03/06 00:35:28;;;;;;;7.20;4.97;;;;;;;;;;5085442;28;20453;-72
2023/03/06 00:37:58;;;;;;;8.77;5.37;;;;;;;;;;5100406;28;20486;-72
2023/03/06 00:40:26;;;;;;;7.47;5.13;;;;;;;;;;5099784;28;20452;-72
2023/03/06 00:42:54;;;;;;;7.40;4.50;;;;;;;;;;5099615;28;20506;-72
2023/03/06 00:45:22;;;;;;;7.27;4.53;;;;;;;;;;5088766;28;20743;-72
2023/03/06 00:47:49;;;;;;;7.73;4.90;;;;;;;;;;5061837;28;20453;-72
2023/03/06 00:50:18;;;;;;;7.97;4.97;;;;;;;;;;5069946;28;20579;-72
2023/03/06 00:52:45;;;;;;;9.93;5.20;;;;;;;;;;5092868;28;20590;-74
2023/03/06 00:55:14;;;;;;;8.40;6.00;;;;;;;;;;5099573;28;20485;-72
2023/03/06 00:57:42;;;;;;;10.03;5.70;;;;;;;;;;5080367;28;20507;-72
2023/03/06 01:00:11;;;;;;;7.90;4.37;;;;;;;;;;5091415;28;20736;-72
2023/03/06 01:02:38;;;;;;;9.77;5.20;;;;;;;;;;5079943;28;20456;-73
2023/03/06 01:05:07;;;;;;;10.70;5.87;;;;;;;;;;5080488;28;20449;-72
2023/03/06 01:07:35;;;;;;;8.00;4.70;;;;;;;;;;5080087;28;20819;-72
2023/03/06 01:10:03;;;;;;;12.30;6.30;;;;;;;;;;5095460;28;20484;-73
2023/03/06 01:12:32;;;;;;;8.53;5.20;;;;;;;;;;5098416;28;20564;-72
2023/03/06 01:15:01;;;;;;;7.90;4.57;;;;;;;;;;5086521;28;20469;-72
2023/03/06 01:17:28;;;;;;;9.73;4.70;;;;;;;;;;5091824;28;20475;-72
2023/03/06 01:19:56;;;;;;;8.37;4.30;;;;;;;;;;5080845;28;20452;-72
2023/03/06 01:22:24;;;;;;;9.20;4.87;;;;;;;;;;5080585;28;21162;-73
2023/03/06 01:24:51;;;;;;;8.73;5.83;;;;;;;;;;5077503;28;20448;-72
2023/03/06 01:27:19;;;;;;;7.40;3.90;;;;;;;;;;5098021;28;20852;-73
2023/03/06 01:29:49;;;;;;;9.97;4.50;;;;;;;;;;5100752;28;20494;-73
2023/03/06 01:32:16;;;;;;;7.77;4.07;;;;;;;;;;5088938;28;20470;-74
2023/03/06 01:34:44;;;;;;;9.90;5.17;;;;;;;;;;5098942;28;20447;-73
2023/03/06 01:37:14;;;;;;;8.47;4.33;;;;;;;;;;5099116;28;20464;-73
2023/03/06 01:39:42;;;;;;;9.93;4.57;;;;;;;;;;5082813;28;20467;-73
2023/03/06 01:42:10;;;;;;;9.27;4.70;;;;;;;;;;5095006;28;20528;-73
2023/03/06 01:44:37;;;;;;;9.60;4.77;;;;;;;;;;5079167;28;20865;-74
2023/03/06 01:47:07;;;;;;;8.27;5.30;;;;;;;;;;5078861;28;20535;-73
2023/03/06 01:49:36;;;;;;;10.00;5.27;;;;;;;;;;5079291;28;20491;-73
2023/03/06 01:52:07;;;;;;;8.07;4.17;;;;;;;;;;5078749;28;20468;-73
2023/03/06 01:54:36;;;;;;;8.47;4.77;;;;;;;;;;5080051;28;20511;-74
2023/03/06 01:57:06;;;;;;;7.97;4.80;;;;;;;;;;5080430;28;20473;-74
2023/03/06 01:59:34;;;;;;;6.60;4.70;;;;;;;;;;5093925;28;20735;-74
2023/03/06 02:02:03;;;;;;;9.10;4.37;;;;;;;;;;5086137;28;20522;-74
2023/03/06 02:04:32;;;;;;;8.07;5.10;;;;;;;;;;5078509;28;20522;-74
2023/03/06 02:07:03;;;;;;;9.50;4.63;;;;;;;;;;5080988;28;20459;-74
2023/03/06 02:09:32;;;;;;;7.60;4.97;;;;;;;;;;5081098;28;20859;-73
2023/03/06 02:12:01;;;;;;;7.97;5.30;;;;;;;;;;5099034;28;20458;-74
2023/03/06 02:14:30;;;;;;;8.80;5.30;;;;;;;;;;5099996;28;20867;-73
2023/03/06 02:16:58;;;;;;;7.13;3.73;;;;;;;;;;5085084;28;20773;-73
2023/03/06 02:19:34;;;;;;;9.10;4.93;;;;;;;;;;5080506;28;20467;-71
2023/03/06 02:22:03;;;;;;;8.03;4.90;;;;;;;;;;5080647;28;20444;-71
2023/03/06 02:24:36;;;;;;;7.37;4.20;;;;;;;;;;5076315;28;20788;-71
2023/03/06 02:27:07;;;;;;;9.07;5.03;;;;;;;;;;5061360;28;20784;-71
2023/03/06 02:29:35;;;;;;;7.67;4.90;;;;;;;;;;5061449;28;20485;-72
2023/03/06 02:32:03;;;;;;;11.13;5.17;;;;;;;;;;5058989;28;20785;-71
2023/03/06 02:34:58;;;;;;;7.60;4.53;;;;;;;;;;5061974;28;20457;-73
2023/03/06 02:37:26;;;;;;;7.30;3.90;;;;;;;;;;5060931;28;20854;-72
2023/03/06 02:39:58;;;;;;;6.63;3.63;;;;;;;;;;5100227;28;20448;-73
2023/03/06 02:42:36;;;;;;;9.50;4.60;;;;;;;;;;5093843;28;20882;-74
2023/03/06 02:45:04;;;;;;;6.73;3.80;;;;;;;;;;5100903;28;20477;-72
2023/03/06 02:47:35;;;;;;;7.90;4.60;;;;;;;;;;5098960;28;20459;-74
2023/03/06 02:50:02;;;;;;;11.67;4.40;;;;;;;;;;5101283;28;20494;-73
2023/03/06 02:52:31;;;;;;;8.33;4.83;;;;;;;;;;5098728;28;20983;-74
2023/03/06 02:54:58;;;;;;;8.93;5.13;;;;;;;;;;5099880;28;20459;-73
2023/03/06 02:57:26;;;;;;;7.70;4.40;;;;;;;;;;5099063;28;20807;-73
2023/03/06 02:59:55;;;;;;;7.83;4.20;;;;;;;;;;5098464;28;20463;-72
2023/03/06 03:02:23;;;;;;;9.07;5.03;;;;;;;;;;5099469;28;20463;-73
2023/03/06 03:04:51;;;;;;;9.60;5.30;;;;;;;;;;5097945;28;20466;-73
2023/03/06 03:07:18;;;;;;;10.13;5.50;;;;;;;;;;5098538;28;20467;-74
2023/03/06 03:09:46;;;;;;;11.33;4.80;;;;;;;;;;5097963;28;20550;-73
2023/03/06 03:12:14;;;;;;;10.77;5.73;;;;;;;;;;5098039;28;20452;-74
2023/03/06 03:14:42;;;;;;;8.47;4.93;;;;;;;;;;5099565;28;20547;-74
2023/03/06 03:17:11;;;;;;;7.53;4.73;;;;;;;;;;5098192;28;20448;-73
2023/03/06 03:19:39;;;;;;;8.07;4.63;;;;;;;;;;5096585;28;20739;-73
2023/03/06 03:22:07;;;;;;;7.97;4.77;;;;;;;;;;5098754;28;20880;-73
2023/03/06 03:24:35;;;;;;;10.50;5.43;;;;;;;;;;5098649;28;20747;-73
2023/03/06 03:27:02;;;;;;;11.10;5.23;;;;;;;;;;5099025;28;20470;-73
2023/03/06 03:29:30;;;;;;;8.00;4.70;;;;;;;;;;5078220;28;20958;-73
2023/03/06 03:31:58;;;;;;;8.67;4.47;;;;;;;;;;5079097;28;20445;-72
2023/03/06 03:34:27;;;;;;;7.33;5.10;;;;;;;;;;5095007;28;20475;-72
2023/03/06 03:36:54;;;;;;;8.87;4.53;;;;;;;;;;5099207;28;20536;-72
2023/03/06 03:39:29;;;;;;;8.17;4.40;;;;;;;;;;5099053;28;20877;-72
2023/03/06 03:41:57;;;;;;;8.60;4.50;;;;;;;;;;5098768;28;20520;-72
2023/03/06 03:44:31;;;;;;;7.67;4.20;;;;;;;;;;5103610;28;20456;-72
2023/03/06 03:46:58;;;;;;;10.57;5.40;;;;;;;;;;5102863;28;20455;-73
2023/03/06 03:49:27;;;;;;;7.43;4.60;;;;;;;;;;5102806;28;20538;-73
2023/03/06 03:51:55;;;;;;;8.10;4.40;;;;;;;;;;5103033;28;20467;-72
2023/03/06 03:54:23;;;;;;;10.67;5.33;;;;;;;;;;5101878;28;20447;-73
2023/03/06 03:56:51;;;;;;;11.67;5.40;;;;;;;;;;5101829;28;20455;-73
2023/03/06 03:59:19;;;;;;;7.40;4.37;;;;;;;;;;5101208;28;21052;-73
2023/03/06 04:01:47;;;;;;;10.97;5.10;;;;;;;;;;5101159;28;20550;-73
2023/03/06 04:04:15;;;;;;;9.17;5.30;;;;;;;;;;5100634;28;20448;-73
2023/03/06 04:06:44;;;;;;;8.83;5.40;;;;;;;;;;5100462;28;20479;-72
2023/03/06 04:09:12;;;;;;;10.00;5.57;;;;;;;;;;5099652;28;20748;-73
2023/03/06 04:11:40;;;;;;;10.20;5.47;;;;;;;;;;5100677;28;20513;-73
2023/03/06 04:14:08;;;;;;;11.47;5.60;;;;;;;;;;5099821;28;20447;-72
2023/03/06 04:16:36;;;;;;;11.10;5.30;;;;;;;;;;5101533;28;20786;-72
2023/03/06 04:19:03;;;;;;;10.23;6.37;;;;;;;;;;5099143;28;20451;-73
2023/03/06 04:21:31;;;;;;;11.73;6.00;;;;;;;;;;5100662;28;20851;-73
2023/03/06 04:24:00;;;;;;;8.90;5.00;;;;;;;;;;5100382;28;20517;-73
2023/03/06 04:26:28;;;;;;;10.50;5.97;;;;;;;;;;5100061;28;20459;-74
2023/03/06 04:28:55;;;;;;;9.07;4.90;;;;;;;;;;5101198;28;20855;-72
2023/03/06 04:31:23;;;;;;;8.97;4.80;;;;;;;;;;5100000;28;20491;-74
2023/03/06 04:33:51;;;;;;;10.17;5.13;;;;;;;;;;5099738;28;20460;-73
2023/03/06 04:36:25;;;;;;;8.27;5.57;;;;;;;;;;5100126;28;20451;-73
2023/03/06 04:38:53;;;;;;;9.77;5.67;;;;;;;;;;5101877;28;20480;-74
2023/03/06 04:41:22;;;;;;;10.00;5.80;;;;;;;;;;5101493;28;20533;-73
2023/03/06 04:43:55;;;;;;;11.23;5.03;;;;;;;;;;5099974;28;20489;-74
2023/03/06 04:46:32;;;;;;;10.80;5.87;;;;;;;;;;5101487;28;20841;-74
2023/03/06 04:49:04;;;;;;;9.07;5.00;;;;;;;;;;5102602;28;20549;-73
2023/03/06 04:51:31;;;;;;;8.87;4.60;;;;;;;;;;5102659;28;20714;-72
2023/03/06 04:53:59;;;;;;;14.10;5.67;;;;;;;;;;5101220;28;20459;-74
2023/03/06 04:56:33;;;;;;;8.53;4.63;;;;;;;;;;5101003;28;20451;-72
2023/03/06 04:59:00;;;;;;;11.07;4.97;;;;;;;;;;5101444;28;20554;-73
2023/03/06 05:01:28;;;;;;;10.40;5.00;;;;;;;;;;5100819;28;20444;-72
2023/03/06 05:03:56;;;;;;;9.57;4.63;;;;;;;;;;5098689;28;20464;-72
2023/03/06 05:06:24;;;;;;;9.13;4.87;;;;;;;;;;5100496;28;20972;-71
2023/03/06 05:08:52;;;;;;;11.60;5.10;;;;;;;;;;5100161;28;20592;-74
2023/03/06 05:11:19;;;;;;;9.70;5.27;;;;;;;;;;5099285;28;20540;-72
2023/03/06 05:13:49;;;;;;;8.67;5.33;;;;;;;;;;5098452;28;20498;-72
2023/03/06 05:16:19;;;;;;;7.53;3.90;;;;;;;;;;5098110;28;20537;-72
2023/03/06 05:18:50;;;;;;;11.53;5.70;;;;;;;;;;5099498;28;20455;-73
2023/03/06 05:21:21;;;;;;;10.27;6.10;;;;;;;;;;5098462;28;20477;-72
2023/03/06 05:23:48;;;;;;;9.77;4.93;;;;;;;;;;5098710;28;20458;-71
2023/03/06 05:26:16;;;;;;;9.67;5.03;;;;;;;;;;5099159;28;20447;-73
2023/03/06 05:28:44;;;;;;;11.40;5.47;;;;;;;;;;5097352;28;20458;-73
2023/03/06 05:31:13;;;;;;;9.23;4.50;;;;;;;;;;5098134;28;20479;-73
2023/03/06 05:33:41;;;;;;;11.10;5.00;;;;;;;;;;5098359;28;20533;-71
2023/03/06 05:36:08;;;;;;;8.63;4.77;;;;;;;;;;5098803;28;20867;-72
2023/03/06 05:38:36;;;;;;;12.17;5.77;;;;;;;;;;5097418;28;20459;-72
2023/03/06 05:41:04;;;;;;;11.13;5.40;;;;;;;;;;5098456;28;20482;-72
2023/03/06 05:43:32;;;;;;;9.23;5.00;;;;;;;;;;5099285;28;20482;-72
2023/03/06 05:46:03;;;;;;;11.17;6.20;;;;;;;;;;5097424;28;20455;-73
2023/03/06 05:48:33;;;;;;;10.00;4.97;;;;;;;;;;5098907;28;20727;-72
2023/03/06 05:51:09;;;;;;;9.20;4.60;;;;;;;;;;5098183;28;20480;-71
2023/03/06 05:53:37;;;;;;;10.83;5.47;;;;;;;;;;5098776;28;20944;-71
2023/03/06 05:56:07;;;;;;;11.97;5.57;;;;;;;;;;5098207;28;20741;-72
2023/03/06 05:58:35;;;;;;;10.20;5.50;;;;;;;;;;5097913;28;20463;-72
2023/03/06 06:01:10;;;;;;;8.73;4.60;;;;;;;;;;5097338;28;20460;-72
2023/03/06 06:03:40;;;;;;;12.20;6.27;;;;;;;;;;5098039;28;20447;-72
2023/03/06 06:06:08;;;;;;;10.27;5.27;;;;;;;;;;5097384;28;20467;-72
2023/03/06 06:08:36;;;;;;;11.57;5.60;;;;;;;;;;5098022;28;21041;-72
2023/03/06 06:11:05;;;;;;;11.30;5.47;;;;;;;;;;5096705;28;20494;-72
2023/03/06 06:13:38;;;;;;;10.90;5.53;;;;;;;;;;5097752;28;20934;-72
2023/03/06 06:16:10;;;;;;;10.30;6.03;;;;;;;;;;5116208;28;20466;-72
2023/03/06 06:18:44;;;;;;;9.67;5.40;;;;;;;;;;5097390;28;20459;-73
2023/03/06 06:21:21;;;;;;;7.20;4.07;;;;;;;;;;5094734;28;20478;-73
2023/03/06 06:23:56;;;;;;;9.57;5.70;;;;;;;;;;5096594;28;20455;-72
2023/03/06 06:26:25;;;;;;;9.40;5.17;;;;;;;;;;5091419;28;20439;-72
2023/03/06 06:28:54;;;;;;;7.53;5.10;;;;;;;;;;5095828;28;20618;-73
2023/03/06 06:31:25;;;;;;;10.20;6.43;;;;;;;;;;5097686;28;20471;-72
2023/03/06 06:33:54;;;;;;;13.00;6.37;;;;;;;;;;5096603;28;20528;-72
2023/03/06 06:36:22;;;;;;;12.47;6.40;;;;;;;;;;5097707;28;20790;-72
2023/03/06 06:38:50;;;;;;;11.50;5.93;;;;;;;;;;5096217;28;20459;-73
2023/03/06 06:41:21;;;;;;;8.60;5.43;;;;;;;;;;5097637;28;20466;-73
2023/03/06 06:43:49;;;;;;;10.07;5.80;;;;;;;;;;5095040;28;20455;-72
2023/03/06 06:46:17;;;;;;;9.17;5.40;;;;;;;;;;5099425;28;20458;-73
2023/03/06 06:48:45;;;;;;;8.43;4.70;;;;;;;;;;5095677;28;20456;-73
2023/03/06 06:51:14;;;;;;;9.30;5.37;;;;;;;;;;5097009;28;20518;-73
2023/03/06 06:53:43;;;;;;;8.83;4.83;;;;;;;;;;5096334;28;20455;-73
2023/03/06 06:56:11;;;;;;;8.60;4.77;;;;;;;;;;5097260;28;20844;-72
2023/03/06 06:58:38;;;;;;;6.53;5.17;;;;;;;;;;5079747;28;20482;-73
2023/03/06 07:01:07;;;;;;;8.60;4.27;;;;;;;;;;5080756;28;20440;-72
2023/03/06 07:03:37;;;;;;;8.43;4.30;;;;;;;;;;5095874;28;20448;-73
2023/03/06 07:06:05;;;;;;;8.30;4.57;;;;;;;;;;5097195;28;20463;-72
2023/03/06 07:08:37;;;;;;;9.30;4.63;;;;;;;;;;5096917;28;20455;-73
2023/03/06 07:11:08;;;;;;;8.37;3.60;;;;;;;;;;5082955;28;20492;-72
2023/03/06 07:13:36;;;;;;;7.87;4.30;;;;;;;;;;5095823;28;20483;-72
2023/03/06 07:16:07;;;;;;;8.93;5.20;;;;;;;;;;5095847;28;20456;-73
2023/03/06 07:18:36;;;;;;;7.20;3.83;;;;;;;;;;5095450;28;20553;-73
2023/03/06 07:21:03;;;;;;;9.70;4.47;;;;;;;;;;5094679;28;20526;-73
2023/03/06 07:23:33;;;;;;;9.63;4.87;;;;;;;;;;5096802;28;20463;-73
2023/03/06 07:26:02;;;;;;;7.60;4.53;;;;;;;;;;5096764;28;20451;-72
2023/03/06 07:28:31;;;;;;;6.80;3.93;;;;;;;;;;5091402;28;21042;-73
2023/03/06 07:31:02;;;;;;;6.30;4.57;;;;;;;;;;5078517;28;20997;-71
2023/03/06 07:33:32;;;;;;;9.50;4.57;;;;;;;;;;5097682;28;20534;-73
2023/03/06 07:36:01;;;;;;;7.27;3.53;;;;;;;;;;5096354;28;20466;-72
2023/03/06 07:38:31;;;;;;;9.30;5.07;;;;;;;;;;5090260;28;20541;-73
2023/03/06 07:40:59;;;;;;;8.47;4.87;;;;;;;;;;5077083;28;20478;-72
2023/03/06 07:43:51;;;;;;;8.33;4.77;;;;;;;;;;5096915;28;21068;-72
2023/03/06 07:46:44;;;;;;;9.43;4.87;;;;;;;;;;5073897;28;20453;-72
2023/03/06 07:49:13;;;;;;;8.77;4.40;;;;;;;;;;5076407;28;20513;-72
2023/03/06 07:52:00;;;;;;;7.10;3.97;;;;;;;;;;5077740;28;20483;-73
2023/03/06 07:54:29;;;;;;;9.20;3.73;;;;;;;;;;5079792;28;20535;-72
2023/03/06 07:56:57;;;;;;;8.90;4.70;;;;;;;;;;5104659;28;20442;-72
2023/03/06 07:59:35;;;;;;;7.20;3.40;;;;;;;;;;5116854;28;20466;-72
2023/03/06 08:02:03;;;;;;;7.20;4.10;;;;;;;;;;5079172;28;20480;-71
2023/03/06 08:04:33;;;;;;;10.10;4.27;;;;;;;;;;5077447;28;20491;-70
2023/03/06 08:07:02;;;;;;;6.70;4.13;;;;;;;;;;5095429;28;20534;-73
2023/03/06 08:09:30;;;;;;;7.60;4.10;;;;;;;;;;5095490;28;20451;-71
2023/03/06 08:11:58;;;;;;;5.50;3.20;;;;;;;;;;5096351;28;20479;-71
2023/03/06 08:14:26;;;;;;;5.77;3.40;;;;;;;;;;5097115;28;20470;-71
2023/03/06 08:16:57;;;;;;;5.73;2.40;;;;;;;;;;5085635;28;20463;-72
2023/03/06 08:19:27;;;;;;;7.77;3.33;;;;;;;;;;5093838;28;20558;-71
2023/03/06 08:22:01;;;;;;;9.07;4.80;;;;;;;;;;5082028;28;20517;-72
2023/03/06 08:24:51;;;;;;;5.27;3.53;;;;;;;;;;5074130;28;20804;-74
2023/03/06 08:27:26;;;;;;;6.97;3.97;;;;;;;;;;5073961;28;21050;-73
2023/03/06 08:29:54;;;;;;;5.27;3.10;;;;;;;;;;5076248;28;20464;-73
2023/03/06 08:32:22;;;;;;;8.93;5.33;;;;;;;;;;5078708;28;20495;-73
2023/03/06 08:34:50;;;;;;;5.43;3.13;;;;;;;;;;5087470;28;20460;-72
2023/03/06 08:37:23;;;;;;;5.10;3.50;;;;;;;;;;5099197;28;20447;-72
2023/03/06 08:42:57;;;;;;;6.10;3.83;;;;;;;;;;5097902;28;20488;-73
2023/03/06 08:45:28;;;;;;;5.60;3.70;;;;;;;;;;5091769;28;20505;-71
2023/03/06 08:47:57;;;;;;;7.03;2.90;;;;;;;;;;5093483;28;20554;-72
2023/03/06 08:50:34;;;;;;;7.60;3.43;;;;;;;;;;5096960;28;20546;-72
2023/03/06 08:53:08;;;;;;;6.10;2.97;;;;;;;;;;5094188;28;20495;-72
2023/03/06 08:55:59;;;;;;;7.30;3.33;;;;;;;;;;5092440;28;20435;-73
2023/03/06 08:58:30;;;;;;;5.00;3.30;;;;;;;;;;5097757;28;20463;-72
2023/03/06 09:01:06;;;;;;;4.23;3.63;;;;;;;;;;5095297;28;20452;-72
2023/03/06 09:03:36;;;;;;;7.97;3.37;;;;;;;;;;5088605;28;20456;-72
2023/03/06 09:06:08;;;;;;;3.80;2.27;;;;;;;;;;5093345;28;20473;-72
2023/03/06 09:08:41;;;;;;;37.20;18.97;;;;;;;;;;5083128;28;20451;-71
2023/03/06 09:11:10;;;;;;;5.53;3.73;;;;;;;;;;5092743;28;20449;-72
2023/03/06 09:13:41;;;;;;;4.73;2.93;;;;;;;;;;5097966;28;20584;-73
2023/03/06 09:16:11;;;;;;;4.80;3.27;;;;;;;;;;5090240;28;20767;-72
2023/03/06 09:18:49;;;;;;;4.80;2.73;;;;;;;;;;5093819;28;20812;-72
2023/03/06 09:21:29;;;;;;;5.07;2.93;;;;;;;;;;5078635;28;20445;-72
2023/03/06 09:24:16;;;;;;;4.60;2.77;;;;;;;;;;5096236;28;20455;-72
2023/03/06 09:26:46;;;;;;;4.30;3.20;;;;;;;;;;5088301;28;20460;-72
2023/03/06 09:29:33;;;;;;;2.90;2.00;;;;;;;;;;5096948;28;21128;-72
2023/03/06 09:32:05;;;;;;;4.80;2.83;;;;;;;;;;5097003;28;20479;-72
2023/03/06 09:34:36;;;;;;;5.93;3.33;;;;;;;;;;5094063;28;20877;-72
2023/03/06 09:37:15;;;;;;;6.33;4.90;;;;;;;;;;5095568;28;20464;-73
2023/03/06 09:39:48;;;;;;;6.20;2.80;;;;;;;;;;5086584;28;20452;-72
2023/03/06 09:42:45;;;;;;;;;;;;;;;;;;;;;
2023/03/06 09:45:44;;;;;;;6.73;2.77;;;;;;;;;;5097674;28;20927;-71
2023/03/06 09:48:15;;;;;;;4.00;2.10;;;;;;;;;;5094656;28;20915;-72
2023/03/06 09:50:45;;;;;;;5.60;2.87;;;;;;;;;;5095584;28;20490;-72
2023/03/06 09:53:34;;;;;;;7.00;2.80;;;;;;;;;;5097538;28;20926;-73
2023/03/06 09:56:04;;;;;;;11.43;4.80;;;;;;;;;;5090217;28;20602;-74
2023/03/06 09:58:37;;;;;;;8.00;2.73;;;;;;;;;;5093234;28;20865;-73
2023/03/06 10:01:16;;;;;;;6.77;4.37;;;;;;;;;;5093750;28;20459;-71
2023/03/06 10:03:48;;;;;;;7.80;4.27;;;;;;;;;;5096305;28;20443;-72
2023/03/06 10:06:22;;;;;;;13.37;4.97;;;;;;;;;;5097664;28;20447;-73
2023/03/06 10:08:53;;;;;;;10.93;7.07;;;;;;;;;;5092584;28;20456;-72
2023/03/06 10:14:42;;;;;;;6.37;3.47;;;;;;;;;;5059323;28;20448;-73
2023/03/06 10:17:16;;;;;;;4.10;2.50;;;;;;;;;;5094801;28;20447;-73
2023/03/06 10:19:46;;;;;;;5.47;2.77;;;;;;;;;;5092667;28;21077;-72
2023/03/06 10:22:18;;;;;;;6.47;3.30;;;;;;;;;;5096124;28;20489;-72
2023/03/06 10:24:57;;;;;;;5.07;2.70;;;;;;;;;;5076255;28;20858;-72
2023/03/06 10:27:47;;;;;;;5.10;3.10;;;;;;;;;;5075291;28;20868;-73
2023/03/06 10:30:34;;;;;;;6.30;3.47;;;;;;;;;;5076415;28;20452;-74
2023/03/06 10:33:06;;;;;;;7.40;3.67;;;;;;;;;;5076408;28;20571;-72
2023/03/06 10:35:44;;;;;;;4.57;2.87;;;;;;;;;;5075599;28;20456;-72
2023/03/06 10:38:16;;;;;;;6.83;4.23;;;;;;;;;;5075418;28;20475;-73
2023/03/06 10:40:50;;;;;;;7.03;2.87;;;;;;;;;;5075033;28;20464;-73
2023/03/06 10:43:24;;;;;;;4.27;2.40;;;;;;;;;;5075126;28;20515;-73
2023/03/06 10:45:58;;;;;;;6.80;3.37;;;;;;;;;;5075769;28;21092;-74
2023/03/06 10:48:28;;;;;;;4.50;2.80;;;;;;;;;;5076595;28;20452;-72
2023/03/06 10:51:15;;;;;;;6.90;3.73;;;;;;;;;;5077513;28;20461;-73
2023/03/06 10:53:55;;;;;;;5.83;3.93;;;;;;;;;;5091626;28;20486;-71
2023/03/06 10:56:30;;;;;;;7.07;3.03;;;;;;;;;;5092002;28;20770;-71
2023/03/06 10:59:18;;;;;;;9.00;5.43;;;;;;;;;;5075055;28;20511;-72
2023/03/06 11:01:52;;;;;;;6.63;3.10;;;;;;;;;;5075192;28;20448;-73
2023/03/06 11:04:32;;;;;;;3.77;2.50;;;;;;;;;;5075157;28;20456;-71
2023/03/06 11:07:07;;;;;;;3.67;2.20;;;;;;;;;;5075278;28;20456;-71
2023/03/06 11:09:39;;;;;;;5.43;2.30;;;;;;;;;;5074976;28;20448;-71
2023/03/06 11:12:26;;;;;;;8.63;3.53;;;;;;;;;;5073882;28;20456;-71
2023/03/06 11:15:12;;;;;;;2.47;1.73;;;;;;;;;;5075062;28;21082;-71
2023/03/06 11:17:53;;;;;;;4.47;2.20;;;;;;;;;;5088708;28;20553;-71
2023/03/06 11:20:25;;;;;;;7.57;2.63;;;;;;;;;;5095382;28;20847;-72
2023/03/06 11:23:14;;;;;;;5.60;3.33;;;;;;;;;;5096847;28;20535;-72
2023/03/06 11:25:47;;;;;;;5.03;2.23;;;;;;;;;;5095256;28;20480;-71
2023/03/06 11:28:19;;;;;;;2.90;1.70;;;;;;;;;;5096181;28;20459;-71
2023/03/06 11:31:03;;;;;;;3.90;2.30;;;;;;;;;;5093606;28;20447;-71
2023/03/06 11:33:36;;;;;;;10.07;2.30;;;;;;;;;;5083047;28;20488;-72
2023/03/06 11:36:10;;;;;;;4.90;1.90;;;;;;;;;;5074448;28;20464;-72
2023/03/06 11:38:43;;;;;;;6.20;3.13;;;;;;;;;;5075429;28;20455;-72
2023/03/06 11:41:16;;;;;;;4.60;2.67;;;;;;;;;;5073896;28;20458;-71
2023/03/06 11:43:51;;;;;;;4.80;2.23;;;;;;;;;;5090223;28;20458;-71
2023/03/06 11:46:47;;;;;;;4.00;2.57;;;;;;;;;;5095339;28;20450;-71
2023/03/06 11:49:21;;;;;;;3.97;2.73;;;;;;;;;;5094779;28;20524;-71
2023/03/06 11:51:54;;;;;;;29.63;19.23;;;;;;;;;;5094453;28;20455;-72
2023/03/06 11:54:22;;;;;;;13.00;3.03;;;;;;;;;;5096963;28;20489;-71
2023/03/06 11:56:58;;;;;;;6.90;2.90;;;;;;;;;;5096736;28;20456;-71
2023/03/06 11:59:45;;;;;;;5.20;2.30;;;;;;;;;;5097306;28;20464;-72
2023/03/06 12:08:41;;;;;;;4.80;1.97;;;;;;;;;;5097583;28;20531;-72
2023/03/06 12:11:23;;;;;;;4.93;2.57;;;;;;;;;;5098002;28;20470;-72
2023/03/06 12:13:59;;;;;;;3.50;2.27;;;;;;;;;;5098835;28;20750;-72
2023/03/06 12:16:43;;;;;;;4.87;2.57;;;;;;;;;;5097333;28;20757;-71
2023/03/06 12:19:22;;;;;;;3.77;2.20;;;;;;;;;;5080724;28;20459;-72
2023/03/06 12:22:07;;;;;;;3.63;1.70;;;;;;;;;;5096695;28;20443;-72
2023/03/06 12:24:50;;;;;;;6.00;2.13;;;;;;;;;;5093360;28;20533;-71
2023/03/06 12:30:23;;;;;;;2.90;1.10;;;;;;;;;;5096266;28;20841;-71
2023/03/06 12:36:03;;;;;;;4.13;1.47;;;;;;;;;;5066403;28;20433;-70
2023/03/06 12:38:45;;;;;;;3.03;1.60;;;;;;;;;;5087074;28;20531;-73
2023/03/06 12:41:30;;;;;;;3.97;2.40;;;;;;;;;;5099690;28;20448;-71
2023/03/06 12:44:23;;;;;;;3.73;1.70;;;;;;;;;;5077951;28;20452;-71
2023/03/06 12:47:02;;;;;;;4.30;1.40;;;;;;;;;;5076957;28;20441;-71
2023/03/06 12:52:30;;;;;;;5.23;1.77;;;;;;;;;;5076360;28;20444;-71
2023/03/06 12:55:35;;;;;;;;;;;;;;;;;;;;;
2023/03/06 13:01:11;;;;;;;4.40;1.20;;;;;;;;;;5076823;28;20580;-72
2023/03/06 13:04:11;;;;;;;;;;;;;;;;;;;;;
2023/03/06 13:12:56;;;;;;;3.00;1.13;;;;;;;;;;5073497;28;20529;-73
2023/03/06 13:22:10;;;;;;;4.47;1.40;;;;;;;;;;5069195;28;20460;-70
2023/03/06 13:25:22;;;;;;;3.70;1.17;;;;;;;;;;5073080;28;20447;-69
2023/03/06 13:28:09;;;;;;;1.80;1.00;;;;;;;;;;5073204;28;20488;-70
2023/03/06 13:31:04;;;;;;;5.10;2.30;;;;;;;;;;5074657;28;20484;-71
2023/03/06 13:33:51;;;;;;;4.70;3.03;;;;;;;;;;5075005;28;20482;-71
2023/03/06 13:36:30;;;;;;;2.80;1.10;;;;;;;;;;5075504;28;20448;-71
2023/03/06 13:39:08;;;;;;;4.10;1.53;;;;;;;;;;5075175;28;20456;-72
2023/03/06 13:41:59;;;;;;;2.30;0.93;;;;;;;;;;5076057;28;20444;-72
2023/03/06 13:47:49;;;;;;;3.10;0.60;;;;;;;;;;5096122;28;20423;-71
2023/03/06 13:50:55;;;;;;;3.17;0.93;;;;;;;;;;5096199;28;20730;-72
2023/03/06 13:53:51;;;;;;;2.27;1.13;;;;;;;;;;5092571;28;20486;-72
2023/03/06 13:56:28;;;;;;;2.57;1.33;;;;;;;;;;5095811;28;20919;-70
2023/03/06 13:59:22;;;;;;;2.27;1.40;;;;;;;;;;5092489;28;21049;-71
2023/03/06 14:01:54;;;;;;;2.63;1.07;;;;;;;;;;5092935;28;20454;-73
2023/03/06 14:04:40;;;;;;;3.40;0.97;;;;;;;;;;5093521;28;20471;-73
2023/03/06 14:07:27;;;;;;;5.70;1.67;;;;;;;;;;5095073;28;20475;-72
2023/03/06 14:10:20;;;;;;;2.23;1.10;;;;;;;;;;5090762;28;20467;-71
2023/03/06 14:13:03;;;;;;;7.07;1.27;;;;;;;;;;5077239;28;20812;-72
2023/03/06 14:15:53;;;;;;;5.27;1.27;;;;;;;;;;5090559;28;20452;-71
2023/03/06 14:18:23;;;;;;;2.27;1.20;;;;;;;;;;5093564;28;20780;-73
2023/03/06 14:21:03;;;;;;;7.70;1.60;;;;;;;;;;5092815;28;20451;-73
2023/03/06 14:24:04;;;;;;;3.20;1.80;;;;;;;;;;5091946;28;20466;-72
2023/03/06 14:27:14;;;;;;;4.37;2.00;;;;;;;;;;5088841;28;20491;-72
2023/03/06 14:36:08;;;;;;;4.00;1.07;;;;;;;;;;5052557;28;20572;-72
2023/03/06 14:38:44;;;;;;;3.10;1.77;;;;;;;;;;5094235;28;20452;-72
2023/03/06 14:41:29;;;;;;;2.03;1.03;;;;;;;;;;5095399;28;20447;-71
2023/03/06 14:44:20;;;;;;;2.83;1.20;;;;;;;;;;5078365;28;20502;-72
2023/03/06 14:46:51;;;;;;;9.63;1.70;;;;;;;;;;5091430;28;20502;-72
2023/03/06 14:49:35;;;;;;;;;;;;;;;;;;;;;
2023/03/06 14:52:33;;;;;;;4.17;2.00;;;;;;;;;;5092661;28;20436;-73
2023/03/06 14:55:16;;;;;;;3.40;1.57;;;;;;;;;;5087436;28;20521;-72
2023/03/06 14:57:45;;;;;;;3.80;2.00;;;;;;;;;;5089147;28;20453;-72
2023/03/06 15:00:23;;;;;;;5.30;2.33;;;;;;;;;;5090157;28;20471;-72
2023/03/06 15:02:52;;;;;;;4.97;2.40;;;;;;;;;;5092118;28;20520;-71
2023/03/06 15:08:27;;;;;;;5.20;2.00;;;;;;;;;;5087153;28;20456;-73
2023/03/06 15:11:14;;;;;;;4.43;2.30;;;;;;;;;;5093753;28;20432;-72
2023/03/06 15:16:49;;;;;;;3.20;1.80;;;;;;;;;;5091470;28;20435;-73
2023/03/06 15:19:22;;;;;;;4.30;1.97;;;;;;;;;;5094604;28;20455;-72
2023/03/06 15:24:43;;;;;;;5.60;2.20;;;;;;;;;;5091470;28;20460;-72
2023/03/06 15:27:47;;;;;;;5.70;2.10;;;;;;;;;;5090740;28;20450;-74
2023/03/06 15:33:28;;;;;;;5.97;3.80;;;;;;;;;;5089561;28;20534;-71
2023/03/06 15:36:28;;;;;;;3.53;1.97;;;;;;;;;;5090562;28;20459;-72
2023/03/06 15:39:24;;;;;;;4.27;1.50;;;;;;;;;;5092900;28;20481;-71
2023/03/06 15:42:09;;;;;;;5.33;2.47;;;;;;;;;;5098636;28;20444;-71
2023/03/06 15:44:37;;;;;;;4.67;2.63;;;;;;;;;;5095945;28;20450;-71
2023/03/06 15:47:10;;;;;;;7.67;2.50;;;;;;;;;;5097514;28;20492;-71
2023/03/06 15:49:40;;;;;;;4.77;3.27;;;;;;;;;;5097373;28;20451;-73
2023/03/06 15:52:13;;;;;;;3.77;2.20;;;;;;;;;;5095692;28;20459;-72
2023/03/06 15:54:40;;;;;;;3.70;1.90;;;;;;;;;;5094503;28;20476;-73
2023/03/06 15:57:13;;;;;;;4.40;2.50;;;;;;;;;;5094320;28;20455;-72
2023/03/06 15:59:44;;;;;;;6.53;2.77;;;;;;;;;;5096733;28;21122;-73
2023/03/06 16:02:17;;;;;;;5.20;2.87;;;;;;;;;;5094890;28;20742;-73
2023/03/06 16:04:53;;;;;;;3.47;2.30;;;;;;;;;;5103130;28;20544;-73
2023/03/06 16:07:21;;;;;;;5.83;2.17;;;;;;;;;;5099340;28;20462;-72
2023/03/06 16:09:49;;;;;;;5.20;3.00;;;;;;;;;;5099427;28;20848;-72
2023/03/06 16:12:21;;;;;;;6.07;2.67;;;;;;;;;;5081179;28;20464;-73
2023/03/06 16:14:50;;;;;;;3.60;2.47;;;;;;;;;;5078460;28;20512;-73
2023/03/06 16:17:20;;;;;;;7.10;2.57;;;;;;;;;;5076364;28;20468;-72
2023/03/06 16:19:52;;;;;;;3.50;2.23;;;;;;;;;;5077557;28;20770;-72
2023/03/06 16:22:25;;;;;;;4.40;2.40;;;;;;;;;;5077797;28;20514;-72